Time;durP1;ratioP1;P1;durP2;ratioP2;P2;SDS_P1;SDS_P2;PMS_P1;PMS_P2;Temp;Humidity;BMP_temperature;BMP_pressure;BME280_temperature;BME280_humidity;BME280_pressure;Samples;Min_cycle;Max_cycle;Signal;HPM_P1;HPM_P2
2021/10/24 00:00:57;;;;;;;8.43;4.00;;;;;;;;;;5091640;28;20017;-74
2021/10/24 00:03:22;;;;;;;12.90;4.32;;;;;;;;;;5093122;28;20099;-75
2021/10/24 00:05:48;;;;;;;13.10;4.63;;;;;;;;;;5093039;28;20091;-74
2021/10/24 00:08:13;;;;;;;9.32;4.28;;;;;;;;;;5092739;28;20346;-75
2021/10/24 00:10:38;;;;;;;8.43;4.10;;;;;;;;;;5093139;28;20423;-74
2021/10/24 00:13:04;;;;;;;11.10;4.40;;;;;;;;;;5092751;28;20020;-75
2021/10/24 00:15:29;;;;;;;14.35;4.93;;;;;;;;;;5093862;28;20460;-75
2021/10/24 00:17:54;;;;;;;13.18;4.65;;;;;;;;;;5091864;28;20020;-75
2021/10/24 00:20:20;;;;;;;15.10;4.50;;;;;;;;;;5092937;28;20507;-75
2021/10/24 00:22:45;;;;;;;11.02;4.50;;;;;;;;;;5094774;28;20095;-75
2021/10/24 00:25:10;;;;;;;12.75;4.65;;;;;;;;;;5096874;28;20048;-75
2021/10/24 00:27:36;;;;;;;11.73;5.20;;;;;;;;;;5096840;28;20052;-75
2021/10/24 00:30:01;;;;;;;14.30;4.65;;;;;;;;;;5096825;28;20096;-75
2021/10/24 00:32:26;;;;;;;7.63;4.38;;;;;;;;;;5097016;28;20438;-75
2021/10/24 00:34:52;;;;;;;14.27;5.00;;;;;;;;;;5096563;28;20024;-74
2021/10/24 00:37:17;;;;;;;10.40;4.82;;;;;;;;;;5096601;28;20031;-75
2021/10/24 00:39:42;;;;;;;10.82;4.25;;;;;;;;;;5096398;28;20016;-75
2021/10/24 00:42:08;;;;;;;12.65;5.38;;;;;;;;;;5096484;28;20448;-75
2021/10/24 00:44:33;;;;;;;11.60;4.97;;;;;;;;;;5096512;28;20008;-75
2021/10/24 00:47:00;;;;;;;18.98;5.45;;;;;;;;;;5096504;28;20455;-75
2021/10/24 00:49:25;;;;;;;13.32;4.57;;;;;;;;;;5096303;28;20020;-76
2021/10/24 00:51:52;;;;;;;9.93;4.28;;;;;;;;;;5096379;28;20415;-75
2021/10/24 00:54:22;;;;;;;16.85;4.78;;;;;;;;;;5095031;28;20032;-75
2021/10/24 00:56:49;;;;;;;9.52;4.43;;;;;;;;;;5096388;28;20020;-75
2021/10/24 00:59:14;;;;;;;10.15;4.85;;;;;;;;;;5096608;28;20016;-75
2021/10/24 01:01:40;;;;;;;11.48;4.95;;;;;;;;;;5094789;28;20028;-75
2021/10/24 01:04:05;;;;;;;14.48;5.30;;;;;;;;;;5096093;28;20099;-75
2021/10/24 01:06:34;;;;;;;11.73;4.82;;;;;;;;;;5094932;28;20022;-76
2021/10/24 01:09:00;;;;;;;12.50;4.78;;;;;;;;;;5096085;28;20028;-75
2021/10/24 01:11:27;;;;;;;10.27;4.80;;;;;;;;;;5096000;28;20099;-75
2021/10/24 01:13:52;;;;;;;15.90;4.80;;;;;;;;;;5096048;28;20020;-75
2021/10/24 01:16:18;;;;;;;9.50;4.85;;;;;;;;;;5096149;28;20042;-75
2021/10/24 01:18:44;;;;;;;7.72;4.28;;;;;;;;;;5096313;28;20012;-75
2021/10/24 01:21:09;;;;;;;12.35;4.72;;;;;;;;;;5095970;28;20042;-75
2021/10/24 01:23:35;;;;;;;16.38;5.03;;;;;;;;;;5095780;28;20520;-75
2021/10/24 01:26:00;;;;;;;12.10;4.80;;;;;;;;;;5094547;28;20022;-75
2021/10/24 01:28:26;;;;;;;11.10;4.93;;;;;;;;;;5095893;28;20024;-75
2021/10/24 01:30:52;;;;;;;12.00;4.95;;;;;;;;;;5095813;28;20526;-75
2021/10/24 01:33:18;;;;;;;12.90;5.07;;;;;;;;;;5095120;28;20115;-75
2021/10/24 01:35:55;;;;;;;11.80;5.65;;;;;;;;;;5094935;28;20107;-75
2021/10/24 01:38:22;;;;;;;13.43;5.13;;;;;;;;;;5095220;28;20091;-75
2021/10/24 01:40:47;;;;;;;22.95;5.70;;;;;;;;;;5095727;28;20345;-75
2021/10/24 01:43:12;;;;;;;12.68;5.35;;;;;;;;;;5095220;28;20051;-75
2021/10/24 01:45:38;;;;;;;12.70;5.75;;;;;;;;;;5093934;28;20020;-74
2021/10/24 01:48:04;;;;;;;14.20;5.47;;;;;;;;;;5095395;28;20521;-75
2021/10/24 01:50:29;;;;;;;23.80;6.18;;;;;;;;;;5095307;28;20028;-75
2021/10/24 01:52:55;;;;;;;12.98;5.40;;;;;;;;;;5095253;28;20380;-75
2021/10/24 01:55:21;;;;;;;13.40;5.80;;;;;;;;;;5094257;28;20031;-75
2021/10/24 01:57:47;;;;;;;14.85;5.22;;;;;;;;;;5094426;28;20021;-75
2021/10/24 02:00:14;;;;;;;14.25;5.43;;;;;;;;;;5095039;28;20027;-74
2021/10/24 02:02:39;;;;;;;13.48;5.00;;;;;;;;;;5093815;28;20020;-74
2021/10/24 02:05:04;;;;;;;11.75;5.10;;;;;;;;;;5095070;28;20020;-74
2021/10/24 02:07:30;;;;;;;14.60;5.10;;;;;;;;;;5094649;28;20020;-75
2021/10/24 02:09:55;;;;;;;12.02;5.28;;;;;;;;;;5095227;28;20477;-75
2021/10/24 02:12:21;;;;;;;12.73;5.50;;;;;;;;;;5095059;28;20044;-74
2021/10/24 02:14:47;;;;;;;10.95;4.78;;;;;;;;;;5093532;28;20024;-74
2021/10/24 02:17:12;;;;;;;10.32;4.75;;;;;;;;;;5094748;28;20016;-74
2021/10/24 02:19:37;;;;;;;11.93;5.43;;;;;;;;;;5094657;28;20028;-74
2021/10/24 02:22:03;;;;;;;12.18;5.35;;;;;;;;;;5094588;28;20504;-75
2021/10/24 02:24:28;;;;;;;8.95;4.80;;;;;;;;;;5094599;28;20020;-75
2021/10/24 02:26:54;;;;;;;12.38;5.22;;;;;;;;;;5093664;28;20020;-75
2021/10/24 02:29:19;;;;;;;11.27;4.88;;;;;;;;;;5094718;28;20056;-75
2021/10/24 02:31:44;;;;;;;11.70;4.97;;;;;;;;;;5092944;28;20024;-74
2021/10/24 02:34:10;;;;;;;12.48;5.30;;;;;;;;;;5094347;28;20032;-74
2021/10/24 02:36:35;;;;;;;11.57;5.18;;;;;;;;;;5094751;28;20549;-75
2021/10/24 02:39:00;;;;;;;13.48;5.30;;;;;;;;;;5094108;28;20061;-74
2021/10/24 02:41:25;;;;;;;8.77;4.88;;;;;;;;;;5094388;28;20399;-75
2021/10/24 02:43:51;;;;;;;14.98;5.20;;;;;;;;;;5094240;28;20408;-74
2021/10/24 02:46:16;;;;;;;10.13;4.90;;;;;;;;;;5094205;28;20040;-74
2021/10/24 02:48:41;;;;;;;15.98;4.82;;;;;;;;;;5094330;28;20481;-75
2021/10/24 02:51:06;;;;;;;12.40;5.22;;;;;;;;;;5094141;28;20012;-74
2021/10/24 02:53:32;;;;;;;13.52;4.82;;;;;;;;;;5092579;28;20096;-75
2021/10/24 02:55:57;;;;;;;15.95;4.88;;;;;;;;;;5094041;28;20111;-75
2021/10/24 02:58:22;;;;;;;12.07;5.28;;;;;;;;;;5094016;28;20016;-74
2021/10/24 03:00:47;;;;;;;12.73;5.10;;;;;;;;;;5092783;28;20204;-74
2021/10/24 03:03:13;;;;;;;10.98;4.80;;;;;;;;;;5093796;28;20016;-75
2021/10/24 03:05:38;;;;;;;13.07;5.18;;;;;;;;;;5093718;28;20024;-75
2021/10/24 03:08:03;;;;;;;14.88;5.68;;;;;;;;;;5093541;28;20099;-75
2021/10/24 03:10:29;;;;;;;13.20;4.95;;;;;;;;;;5093840;28;20370;-75
2021/10/24 03:12:54;;;;;;;10.98;5.18;;;;;;;;;;5093772;28;20023;-75
2021/10/24 03:15:19;;;;;;;11.27;4.38;;;;;;;;;;5093615;28;20028;-75
2021/10/24 03:17:44;;;;;;;9.75;4.68;;;;;;;;;;5093435;28;20055;-75
2021/10/24 03:20:10;;;;;;;11.73;4.88;;;;;;;;;;5093526;28;20020;-74
2021/10/24 03:22:35;;;;;;;16.42;6.18;;;;;;;;;;5093678;28;20016;-75
2021/10/24 03:25:00;;;;;;;17.27;6.15;;;;;;;;;;5093463;28;20020;-75
2021/10/24 03:27:26;;;;;;;16.75;6.50;;;;;;;;;;5092108;28;20074;-75
2021/10/24 03:29:51;;;;;;;16.17;6.78;;;;;;;;;;5093474;28;20031;-75
2021/10/24 03:32:16;;;;;;;18.17;8.00;;;;;;;;;;5093425;28;20468;-74
2021/10/24 03:34:41;;;;;;;21.40;6.88;;;;;;;;;;5093479;28;20040;-75
2021/10/24 03:37:07;;;;;;;20.02;6.47;;;;;;;;;;5093304;28;20056;-74
2021/10/24 03:39:32;;;;;;;18.00;7.15;;;;;;;;;;5093038;28;20069;-75
2021/10/24 03:41:57;;;;;;;31.63;13.52;;;;;;;;;;5093411;28;20043;-75
2021/10/24 03:44:23;;;;;;;37.78;16.30;;;;;;;;;;5093294;28;20016;-75
2021/10/24 03:46:48;;;;;;;38.25;16.67;;;;;;;;;;5093152;28;20499;-74
2021/10/24 03:49:13;;;;;;;36.83;15.82;;;;;;;;;;5093157;28;20012;-75
2021/10/24 03:51:39;;;;;;;34.75;14.70;;;;;;;;;;5093014;28;20024;-76
2021/10/24 03:54:04;;;;;;;34.42;14.88;;;;;;;;;;5093038;28;20385;-74
2021/10/24 03:56:29;;;;;;;40.47;15.50;;;;;;;;;;5092955;28;20020;-74
2021/10/24 03:58:54;;;;;;;25.60;10.65;;;;;;;;;;5093016;28;20086;-74
2021/10/24 04:01:20;;;;;;;31.45;13.15;;;;;;;;;;5093435;28;20016;-74
2021/10/24 04:03:45;;;;;;;35.65;11.25;;;;;;;;;;5092884;28;20035;-74
2021/10/24 04:06:10;;;;;;;30.75;10.77;;;;;;;;;;5093652;28;20047;-76
2021/10/24 04:08:35;;;;;;;18.30;9.45;;;;;;;;;;5093021;28;20024;-75
2021/10/24 04:11:01;;;;;;;19.15;8.20;;;;;;;;;;5092894;28;20016;-74
2021/10/24 04:13:26;;;;;;;18.17;8.13;;;;;;;;;;5092787;28;20024;-75
2021/10/24 04:15:52;;;;;;;15.27;6.90;;;;;;;;;;5092895;28;20380;-70
2021/10/24 04:18:17;;;;;;;20.52;7.97;;;;;;;;;;5092873;28;20080;-74
2021/10/24 04:20:43;;;;;;;18.42;7.57;;;;;;;;;;5093015;28;20012;-75
2021/10/24 04:23:08;;;;;;;21.65;8.15;;;;;;;;;;5091516;28;20032;-75
2021/10/24 04:25:33;;;;;;;17.02;9.65;;;;;;;;;;5092736;28;20024;-75
2021/10/24 04:27:59;;;;;;;15.18;8.20;;;;;;;;;;5092919;28;20031;-74
2021/10/24 04:30:24;;;;;;;18.65;9.35;;;;;;;;;;5092892;28;20032;-75
2021/10/24 04:32:49;;;;;;;22.00;9.48;;;;;;;;;;5091566;28;20098;-74
2021/10/24 04:35:15;;;;;;;24.35;9.20;;;;;;;;;;5092617;28;20085;-74
2021/10/24 04:37:40;;;;;;;21.27;9.32;;;;;;;;;;5092291;28;20353;-75
2021/10/24 04:40:07;;;;;;;20.45;9.30;;;;;;;;;;5092745;28;20023;-74
2021/10/24 04:42:33;;;;;;;16.60;7.78;;;;;;;;;;5092788;28;20046;-75
2021/10/24 04:44:58;;;;;;;22.13;8.57;;;;;;;;;;5092684;28;20028;-75
2021/10/24 04:47:24;;;;;;;20.77;8.57;;;;;;;;;;5092571;28;20019;-75
2021/10/24 04:49:49;;;;;;;17.90;9.00;;;;;;;;;;5091666;28;20012;-76
2021/10/24 04:52:14;;;;;;;18.52;8.25;;;;;;;;;;5091350;28;20038;-75
2021/10/24 04:54:40;;;;;;;18.30;7.82;;;;;;;;;;5092689;28;20035;-75
2021/10/24 04:57:05;;;;;;;20.83;8.25;;;;;;;;;;5092584;28;20050;-75
2021/10/24 04:59:30;;;;;;;16.92;8.45;;;;;;;;;;5092506;28;20150;-74
2021/10/24 05:01:56;;;;;;;13.82;7.25;;;;;;;;;;5092533;28;20016;-74
2021/10/24 05:04:21;;;;;;;23.58;7.70;;;;;;;;;;5092642;28;20024;-74
2021/10/24 05:06:46;;;;;;;21.85;7.97;;;;;;;;;;5092630;28;20144;-74
2021/10/24 05:09:12;;;;;;;25.17;9.00;;;;;;;;;;5093123;28;20022;-75
2021/10/24 05:11:37;;;;;;;22.27;9.35;;;;;;;;;;5096114;28;20024;-75
2021/10/24 05:14:07;;;;;;;25.63;8.15;;;;;;;;;;5095975;28;20028;-74
2021/10/24 05:16:32;;;;;;;30.98;10.30;;;;;;;;;;5096219;28;20020;-75
2021/10/24 05:18:58;;;;;;;37.72;11.00;;;;;;;;;;5096060;28;20425;-74
2021/10/24 05:21:23;;;;;;;38.08;11.13;;;;;;;;;;5095860;28;20024;-75
2021/10/24 05:23:48;;;;;;;26.70;9.18;;;;;;;;;;5095715;28;20065;-75
2021/10/24 05:26:13;;;;;;;32.47;9.95;;;;;;;;;;5095771;28;20024;-74
2021/10/24 05:28:39;;;;;;;31.35;8.70;;;;;;;;;;5094564;28;20481;-75
2021/10/24 05:31:04;;;;;;;34.47;9.55;;;;;;;;;;5095580;28;20031;-75
2021/10/24 05:33:29;;;;;;;31.95;10.32;;;;;;;;;;5095479;28;20016;-75
2021/10/24 05:35:55;;;;;;;50.03;12.85;;;;;;;;;;5095893;28;20438;-75
2021/10/24 05:38:21;;;;;;;41.47;12.75;;;;;;;;;;5093876;28;20020;-75
2021/10/24 05:40:48;;;;;;;37.15;11.98;;;;;;;;;;5096032;28;20020;-75
2021/10/24 05:43:13;;;;;;;25.45;10.52;;;;;;;;;;5095252;28;20054;-75
2021/10/24 05:45:40;;;;;;;33.55;10.75;;;;;;;;;;5095159;28;20020;-74
2021/10/24 05:48:05;;;;;;;40.55;10.68;;;;;;;;;;5095488;28;20101;-75
2021/10/24 05:50:31;;;;;;;30.77;11.80;;;;;;;;;;5095750;28;20044;-76
2021/10/24 05:52:56;;;;;;;40.05;12.95;;;;;;;;;;5095491;28;20027;-76
2021/10/24 05:55:22;;;;;;;28.75;11.13;;;;;;;;;;5093843;28;20115;-75
2021/10/24 05:57:47;;;;;;;37.22;11.82;;;;;;;;;;5095194;28;20610;-75
2021/10/24 06:00:13;;;;;;;34.50;11.93;;;;;;;;;;5095143;28;20099;-75
2021/10/24 06:02:39;;;;;;;38.17;11.80;;;;;;;;;;5095213;28;20507;-75
2021/10/24 06:05:04;;;;;;;34.72;11.75;;;;;;;;;;5094976;28;20023;-75
2021/10/24 06:07:32;;;;;;;40.17;12.35;;;;;;;;;;5094620;28;20392;-76
2021/10/24 06:10:01;;;;;;;35.67;12.38;;;;;;;;;;5095206;28;20008;-75
2021/10/24 06:15:02;;;;;;;39.45;12.88;;;;;;;;;;5095219;28;20529;-75
2021/10/24 06:17:27;;;;;;;;;;;;;;;;;;5095060;28;20065;-75
2021/10/24 06:19:52;;;;;;;40.22;14.35;;;;;;;;;;5094615;28;19904;-75
2021/10/24 06:22:18;;;;;;;46.97;15.02;;;;;;;;;;5094631;28;20021;-74
2021/10/24 06:24:43;;;;;;;39.90;13.40;;;;;;;;;;5093395;28;20019;-75
2021/10/24 06:27:08;;;;;;;39.15;13.30;;;;;;;;;;5093440;28;20030;-73
2021/10/24 06:29:34;;;;;;;44.80;14.82;;;;;;;;;;5092892;28;20484;-75
2021/10/24 06:31:59;;;;;;;46.83;14.88;;;;;;;;;;5094393;28;20027;-74
2021/10/24 06:34:25;;;;;;;50.47;16.05;;;;;;;;;;5092820;28;20076;-74
2021/10/24 06:36:51;;;;;;;47.03;17.85;;;;;;;;;;5094272;28;20024;-75
2021/10/24 06:39:16;;;;;;;45.95;14.93;;;;;;;;;;5093852;28;20017;-75
2021/10/24 06:41:42;;;;;;;48.88;13.75;;;;;;;;;;5094113;28;20023;-74
2021/10/24 06:44:07;;;;;;;39.30;14.40;;;;;;;;;;5094520;28;20494;-75
2021/10/24 06:46:32;;;;;;;36.20;12.20;;;;;;;;;;5094452;28;20020;-74
2021/10/24 06:48:58;;;;;;;47.42;15.27;;;;;;;;;;5094053;28;20073;-75
2021/10/24 06:51:23;;;;;;;37.75;14.07;;;;;;;;;;5093944;28;20016;-76
2021/10/24 06:53:48;;;;;;;38.53;14.38;;;;;;;;;;5093819;28;20476;-76
2021/10/24 06:56:13;;;;;;;30.85;10.93;;;;;;;;;;5093851;28;20008;-75
2021/10/24 06:58:38;;;;;;;34.15;9.85;;;;;;;;;;5093942;28;20099;-75
2021/10/24 07:01:04;;;;;;;33.63;9.35;;;;;;;;;;5093951;28;20373;-76
2021/10/24 07:03:29;;;;;;;31.10;10.73;;;;;;;;;;5093798;28;20061;-76
2021/10/24 07:05:54;;;;;;;29.05;9.52;;;;;;;;;;5093829;28;20457;-76
2021/10/24 07:08:20;;;;;;;26.65;9.75;;;;;;;;;;5093428;28;20024;-76
2021/10/24 07:10:45;;;;;;;23.00;9.23;;;;;;;;;;5092552;28;20016;-76
2021/10/24 07:13:10;;;;;;;23.75;7.97;;;;;;;;;;5093850;28;20016;-75
2021/10/24 07:15:36;;;;;;;21.20;7.57;;;;;;;;;;5093196;28;20032;-76
2021/10/24 07:18:01;;;;;;;19.92;7.38;;;;;;;;;;5093637;28;20024;-75
2021/10/24 07:20:28;;;;;;;24.00;8.77;;;;;;;;;;5093468;28;20051;-75
2021/10/24 07:22:53;;;;;;;24.70;8.70;;;;;;;;;;5093435;28;20047;-75
2021/10/24 07:25:18;;;;;;;17.38;6.90;;;;;;;;;;5093278;28;20392;-74
2021/10/24 07:27:44;;;;;;;19.83;8.55;;;;;;;;;;5093181;28;20026;-73
2021/10/24 07:30:10;;;;;;;19.88;7.20;;;;;;;;;;5091963;28;20460;-73
2021/10/24 07:32:36;;;;;;;19.48;6.63;;;;;;;;;;5092587;28;20020;-74
2021/10/24 07:35:02;;;;;;;20.75;6.57;;;;;;;;;;5093188;28;20035;-73
2021/10/24 07:37:27;;;;;;;28.02;7.68;;;;;;;;;;5091574;28;20064;-74
2021/10/24 07:39:53;;;;;;;23.58;7.68;;;;;;;;;;5093234;28;20012;-73
2021/10/24 07:42:18;;;;;;;25.88;7.88;;;;;;;;;;5091510;28;20047;-73
2021/10/24 07:44:44;;;;;;;15.70;6.88;;;;;;;;;;5093224;28;20016;-73
2021/10/24 07:47:09;;;;;;;16.95;6.97;;;;;;;;;;5091660;28;20027;-72
2021/10/24 07:49:34;;;;;;;15.55;7.25;;;;;;;;;;5092934;28;20026;-74
2021/10/24 07:52:00;;;;;;;17.90;8.50;;;;;;;;;;5093320;28;20027;-73
2021/10/24 07:54:25;;;;;;;16.35;8.05;;;;;;;;;;5091519;28;20032;-72
2021/10/24 07:56:51;;;;;;;15.55;7.85;;;;;;;;;;5093449;28;20095;-72
2021/10/24 07:59:16;;;;;;;17.05;6.57;;;;;;;;;;5091597;28;20440;-71
2021/10/24 08:01:42;;;;;;;15.95;5.50;;;;;;;;;;5092714;28;20492;-72
2021/10/24 08:04:07;;;;;;;14.75;5.70;;;;;;;;;;5092774;28;20047;-71
2021/10/24 08:06:36;;;;;;;15.32;6.18;;;;;;;;;;5092922;28;20074;-72
2021/10/24 08:09:05;;;;;;;10.90;5.00;;;;;;;;;;5092685;28;20027;-72
2021/10/24 08:11:31;;;;;;;13.32;5.18;;;;;;;;;;5091220;28;20103;-72
2021/10/24 08:13:57;;;;;;;9.90;4.22;;;;;;;;;;5091392;28;20107;-72
2021/10/24 08:16:23;;;;;;;9.32;5.20;;;;;;;;;;5091473;28;20028;-72
2021/10/24 08:18:48;;;;;;;12.63;5.22;;;;;;;;;;5091542;28;20077;-71
2021/10/24 08:21:13;;;;;;;12.50;4.20;;;;;;;;;;5093034;28;20035;-71
2021/10/24 08:23:38;;;;;;;7.63;2.83;;;;;;;;;;5092849;28;20288;-71
2021/10/24 08:26:04;;;;;;;10.13;3.58;;;;;;;;;;5092473;28;20031;-71
2021/10/24 08:28:29;;;;;;;8.73;3.17;;;;;;;;;;5092834;28;20028;-71
2021/10/24 08:30:54;;;;;;;11.07;3.20;;;;;;;;;;5092687;28;20016;-72
2021/10/24 08:33:19;;;;;;;8.52;3.40;;;;;;;;;;5092624;28;20253;-71
2021/10/24 08:35:45;;;;;;;10.75;3.22;;;;;;;;;;5092300;28;20039;-71
2021/10/24 08:38:11;;;;;;;7.60;3.15;;;;;;;;;;5092249;28;20476;-71
2021/10/24 08:40:39;;;;;;;9.02;3.58;;;;;;;;;;5091298;28;20472;-72
2021/10/24 08:43:14;;;;;;;7.35;3.00;;;;;;;;;;5091745;28;20055;-72
2021/10/24 08:45:40;;;;;;;11.23;3.20;;;;;;;;;;5095033;28;20054;-72
2021/10/24 08:48:05;;;;;;;5.57;2.90;;;;;;;;;;5096309;28;20024;-72
2021/10/24 08:50:32;;;;;;;8.02;3.53;;;;;;;;;;5096329;28;20027;-72
2021/10/24 08:52:58;;;;;;;7.68;3.00;;;;;;;;;;5096346;28;20100;-72
2021/10/24 08:55:23;;;;;;;8.48;3.10;;;;;;;;;;5096039;28;20024;-71
2021/10/24 08:57:49;;;;;;;8.65;2.92;;;;;;;;;;5096011;28;20073;-71
2021/10/24 09:00:15;;;;;;;7.90;3.20;;;;;;;;;;5094795;28;20069;-71
2021/10/24 09:02:54;;;;;;;7.40;2.88;;;;;;;;;;5096178;28;20098;-71
2021/10/24 09:05:26;;;;;;;7.88;3.00;;;;;;;;;;5094668;28;20024;-71
2021/10/24 09:07:54;;;;;;;11.25;3.45;;;;;;;;;;5096011;28;20031;-71
2021/10/24 09:10:42;;;;;;;10.18;3.60;;;;;;;;;;5095945;28;20024;-71
2021/10/24 09:13:08;;;;;;;9.88;3.38;;;;;;;;;;5089077;28;20069;-71
2021/10/24 09:15:45;;;;;;;10.73;3.15;;;;;;;;;;5095987;28;20507;-71
2021/10/24 09:18:11;;;;;;;10.15;2.42;;;;;;;;;;5094376;28;20028;-71
2021/10/24 09:20:36;;;;;;;7.28;2.20;;;;;;;;;;5095962;28;20012;-71
2021/10/24 09:23:09;;;;;;;9.85;3.00;;;;;;;;;;5095622;28;20396;-71
2021/10/24 09:25:46;;;;;;;7.57;2.90;;;;;;;;;;5095901;28;20028;-71
2021/10/24 09:28:13;;;;;;;9.55;3.65;;;;;;;;;;5095938;28;20488;-70
2021/10/24 09:30:39;;;;;;;9.27;3.55;;;;;;;;;;5095478;28;20106;-71
2021/10/24 09:33:11;;;;;;;10.77;2.45;;;;;;;;;;5095610;28;20154;-71
2021/10/24 09:35:40;;;;;;;10.93;2.67;;;;;;;;;;5095326;28;20080;-71
2021/10/24 09:38:07;;;;;;;6.05;2.50;;;;;;;;;;5093826;28;20020;-71
2021/10/24 09:40:37;;;;;;;9.40;2.70;;;;;;;;;;5095849;28;20476;-71
2021/10/24 09:43:06;;;;;;;14.93;3.08;;;;;;;;;;5095143;28;20504;-71
2021/10/24 09:45:32;;;;;;;7.80;2.30;;;;;;;;;;5094897;28;20023;-71
2021/10/24 09:48:05;;;;;;;9.57;2.28;;;;;;;;;;5095416;28;20008;-71
2021/10/24 09:50:40;;;;;;;4.20;2.10;;;;;;;;;;5095586;28;20020;-71
2021/10/24 09:53:16;;;;;;;6.32;2.42;;;;;;;;;;5095175;28;20031;-71
2021/10/24 09:55:43;;;;;;;8.10;2.45;;;;;;;;;;5094258;28;20047;-70
2021/10/24 09:58:08;;;;;;;6.60;2.30;;;;;;;;;;5095965;28;20028;-71
2021/10/24 10:00:34;;;;;;;6.10;2.17;;;;;;;;;;5095248;28;20025;-70
2021/10/24 10:03:00;;;;;;;6.50;2.47;;;;;;;;;;5095022;28;20026;-70
2021/10/24 10:05:25;;;;;;;8.90;2.50;;;;;;;;;;5093408;28;20019;-70
2021/10/24 10:07:50;;;;;;;9.70;2.40;;;;;;;;;;5093372;28;20099;-70
2021/10/24 10:10:16;;;;;;;6.63;2.50;;;;;;;;;;5095252;28;20454;-70
2021/10/24 10:12:45;;;;;;;9.23;2.38;;;;;;;;;;5094996;28;20028;-70
2021/10/24 10:15:11;;;;;;;7.32;2.38;;;;;;;;;;5094806;28;20072;-69
2021/10/24 10:17:37;;;;;;;6.57;2.55;;;;;;;;;;5094593;28;20491;-70
2021/10/24 10:20:21;;;;;;;7.20;2.33;;;;;;;;;;5093637;28;20377;-70
2021/10/24 10:22:59;;;;;;;5.25;2.50;;;;;;;;;;5094951;28;20052;-69
2021/10/24 10:25:28;;;;;;;11.75;2.65;;;;;;;;;;5092963;28;20015;-70
2021/10/24 10:27:55;;;;;;;9.00;2.60;;;;;;;;;;5094641;28;20021;-71
2021/10/24 10:30:32;;;;;;;7.32;2.60;;;;;;;;;;5094669;28;20115;-70
2021/10/24 10:32:58;;;;;;;10.23;2.55;;;;;;;;;;5094685;28;20022;-71
2021/10/24 10:35:24;;;;;;;9.20;2.40;;;;;;;;;;5093053;28;20024;-70
2021/10/24 10:37:51;;;;;;;7.47;2.53;;;;;;;;;;5093808;28;20107;-70
2021/10/24 10:40:21;;;;;;;5.93;1.52;;;;;;;;;;5094116;28;20036;-70
2021/10/24 10:42:47;;;;;;;5.80;1.98;;;;;;;;;;5092812;28;20130;-70
2021/10/24 10:45:16;;;;;;;5.22;1.90;;;;;;;;;;5094293;28;20020;-70
2021/10/24 10:47:47;;;;;;;5.13;1.77;;;;;;;;;;5092661;28;20388;-69
2021/10/24 10:50:39;;;;;;;7.40;2.13;;;;;;;;;;5094009;28;20027;-70
2021/10/24 10:53:06;;;;;;;9.23;1.95;;;;;;;;;;5094483;28;20020;-71
2021/10/24 10:55:50;;;;;;;18.38;2.83;;;;;;;;;;5093592;28;20056;-70
2021/10/24 10:58:34;;;;;;;8.63;2.20;;;;;;;;;;5093698;28;20055;-69
2021/10/24 11:01:00;;;;;;;13.95;2.38;;;;;;;;;;5093956;28;20020;-70
2021/10/24 11:03:40;;;;;;;6.30;1.67;;;;;;;;;;5093750;28;20020;-70
2021/10/24 11:06:08;;;;;;;6.13;1.58;;;;;;;;;;5094203;28;20016;-70
2021/10/24 11:08:48;;;;;;;7.10;1.90;;;;;;;;;;5093396;28;20363;-70
2021/10/24 11:11:13;;;;;;;4.45;2.33;;;;;;;;;;5093746;28;20019;-69
2021/10/24 11:13:38;;;;;;;5.28;1.85;;;;;;;;;;5093417;28;20030;-70
2021/10/24 11:16:31;;;;;;;7.68;1.80;;;;;;;;;;5094117;28;20472;-70
2021/10/24 11:18:56;;;;;;;7.30;1.73;;;;;;;;;;5085113;28;20477;-70
2021/10/24 11:21:25;;;;;;;6.72;1.70;;;;;;;;;;5092091;28;20111;-70
2021/10/24 11:23:54;;;;;;;5.00;1.63;;;;;;;;;;5093426;28;20012;-69
2021/10/24 11:26:20;;;;;;;3.10;1.60;;;;;;;;;;5093249;28;20470;-70
2021/10/24 11:28:46;;;;;;;6.25;1.70;;;;;;;;;;5092104;28;20012;-70
2021/10/24 11:31:17;;;;;;;9.57;1.73;;;;;;;;;;5093422;28;20545;-69
2021/10/24 11:33:51;;;;;;;4.10;1.40;;;;;;;;;;5092904;28;20442;-70
2021/10/24 11:36:24;;;;;;;5.88;1.50;;;;;;;;;;5093190;28;20016;-69
2021/10/24 11:38:59;;;;;;;3.42;1.73;;;;;;;;;;5092991;28;20438;-70
2021/10/24 11:41:25;;;;;;;2.28;1.27;;;;;;;;;;5093144;28;20073;-70
2021/10/24 11:43:51;;;;;;;10.32;1.95;;;;;;;;;;5093012;28;20048;-71
2021/10/24 11:46:16;;;;;;;6.50;1.65;;;;;;;;;;5093062;28;20024;-70
2021/10/24 11:48:43;;;;;;;7.00;1.50;;;;;;;;;;5093269;28;20047;-70
2021/10/24 11:51:09;;;;;;;9.65;1.67;;;;;;;;;;5093324;28;20024;-70
2021/10/24 11:53:37;;;;;;;5.97;1.63;;;;;;;;;;5092727;28;20078;-70
2021/10/24 11:56:15;;;;;;;5.50;1.40;;;;;;;;;;5091726;28;20059;-70
2021/10/24 12:01:38;;;;;;;4.43;1.45;;;;;;;;;;5087911;28;20028;-70
2021/10/24 12:04:05;;;;;;;5.47;1.30;;;;;;;;;;5093245;28;20039;-70
2021/10/24 12:06:45;;;;;;;5.78;1.42;;;;;;;;;;5092844;28;20050;-70
2021/10/24 12:09:14;;;;;;;6.05;1.35;;;;;;;;;;5092650;28;20465;-70
2021/10/24 12:11:41;;;;;;;5.95;1.90;;;;;;;;;;5092692;28;20020;-69
2021/10/24 12:14:07;;;;;;;7.72;1.98;;;;;;;;;;5092998;28;20016;-71
2021/10/24 12:16:33;;;;;;;5.50;1.50;;;;;;;;;;5092791;28;20043;-70
2021/10/24 12:19:09;;;;;;;6.70;2.00;;;;;;;;;;5095063;28;20092;-71
2021/10/24 12:21:34;;;;;;;5.03;1.55;;;;;;;;;;5095408;28;20423;-70
2021/10/24 12:24:20;;;;;;;4.70;1.50;;;;;;;;;;5097259;28;20095;-71
2021/10/24 12:26:46;;;;;;;4.22;1.55;;;;;;;;;;5096811;28;20039;-70
2021/10/24 12:29:16;;;;;;;7.97;1.60;;;;;;;;;;5095438;28;20399;-71
2021/10/24 12:31:41;;;;;;;5.80;1.50;;;;;;;;;;5095292;28;20078;-71
2021/10/24 12:34:13;;;;;;;5.45;2.13;;;;;;;;;;5096574;28;20020;-71
2021/10/24 12:36:39;;;;;;;3.20;1.40;;;;;;;;;;5096937;28;20008;-70
2021/10/24 12:39:09;;;;;;;4.00;1.85;;;;;;;;;;5096275;28;20017;-71
2021/10/24 12:41:34;;;;;;;;;;;;;;;;;;5096610;28;20016;-70
2021/10/24 12:43:59;;;;;;;7.80;1.57;;;;;;;;;;5096669;28;19912;-70
2021/10/24 12:46:28;;;;;;;5.32;2.58;;;;;;;;;;5096576;28;20035;-70
2021/10/24 12:48:54;;;;;;;;;;;;;;;;;;5096756;28;20165;-70
2021/10/24 12:51:23;;;;;;;3.42;1.50;;;;;;;;;;5096305;28;19995;-70
2021/10/24 12:53:49;;;;;;;3.80;1.48;;;;;;;;;;5096022;28;20020;-71
2021/10/24 12:56:15;;;;;;;9.60;1.83;;;;;;;;;;5096323;28;20411;-70
2021/10/24 12:58:40;;;;;;;6.10;2.17;;;;;;;;;;5096289;28;20028;-70
2021/10/24 13:01:05;;;;;;;7.85;1.50;;;;;;;;;;5096210;28;20016;-70
2021/10/24 13:03:31;;;;;;;5.53;2.13;;;;;;;;;;5095818;28;20439;-71
2021/10/24 13:05:57;;;;;;;4.10;1.70;;;;;;;;;;5096565;28;20376;-71
2021/10/24 13:08:22;;;;;;;3.42;1.67;;;;;;;;;;5095646;28;20016;-71
2021/10/24 13:10:47;;;;;;;5.43;1.63;;;;;;;;;;5096163;28;20024;-72
2021/10/24 13:13:12;;;;;;;2.95;1.38;;;;;;;;;;5096247;28;20476;-73
2021/10/24 13:15:38;;;;;;;6.78;1.30;;;;;;;;;;5095688;28;20093;-72
2021/10/24 13:18:03;;;;;;;5.30;1.75;;;;;;;;;;5095790;28;20369;-72
2021/10/24 13:20:32;;;;;;;10.57;2.10;;;;;;;;;;5095854;28;20024;-71
2021/10/24 13:22:58;;;;;;;4.90;1.92;;;;;;;;;;5094562;28;20040;-72
2021/10/24 13:25:27;;;;;;;8.38;1.75;;;;;;;;;;5094420;28;20109;-71
2021/10/24 13:27:54;;;;;;;4.15;1.52;;;;;;;;;;5094493;28;20047;-71
2021/10/24 13:30:19;;;;;;;6.07;2.30;;;;;;;;;;5094744;28;20106;-71
2021/10/24 13:32:45;;;;;;;6.60;2.03;;;;;;;;;;5094808;28;20558;-71
2021/10/24 13:35:10;;;;;;;3.55;1.55;;;;;;;;;;5094314;28;20495;-72
2021/10/24 13:37:35;;;;;;;3.40;1.25;;;;;;;;;;5095340;28;20012;-72
2021/10/24 13:40:01;;;;;;;9.93;2.10;;;;;;;;;;5095598;28;20067;-72
2021/10/24 13:42:26;;;;;;;8.35;1.83;;;;;;;;;;5095251;28;20288;-72
2021/10/24 13:44:52;;;;;;;6.47;1.73;;;;;;;;;;5095457;28;20044;-72
2021/10/24 13:47:17;;;;;;;12.52;6.53;;;;;;;;;;5095511;28;20047;-72
2021/10/24 13:49:43;;;;;;;3.60;1.50;;;;;;;;;;5093996;28;20026;-73
2021/10/24 13:52:08;;;;;;;5.75;1.77;;;;;;;;;;5095277;28;20028;-72
2021/10/24 13:54:33;;;;;;;6.20;1.83;;;;;;;;;;5095089;28;20012;-72
2021/10/24 13:56:58;;;;;;;4.32;1.70;;;;;;;;;;5095355;28;20477;-72
2021/10/24 13:59:24;;;;;;;3.42;1.70;;;;;;;;;;5093695;28;20019;-72
2021/10/24 14:01:49;;;;;;;9.18;2.13;;;;;;;;;;5093706;28;20149;-71
2021/10/24 14:04:14;;;;;;;4.03;1.50;;;;;;;;;;5095153;28;20381;-72
2021/10/24 14:06:40;;;;;;;8.65;1.77;;;;;;;;;;5095266;28;20021;-72
2021/10/24 14:09:05;;;;;;;9.15;1.70;;;;;;;;;;5093627;28;20026;-72
2021/10/24 14:11:30;;;;;;;3.97;1.80;;;;;;;;;;5094725;28;20034;-72
2021/10/24 14:13:56;;;;;;;12.07;3.10;;;;;;;;;;5094750;28;20024;-73
2021/10/24 14:16:21;;;;;;;6.57;1.77;;;;;;;;;;5095002;28;20016;-72
2021/10/24 14:18:47;;;;;;;7.57;1.80;;;;;;;;;;5093575;28;20114;-72
2021/10/24 14:21:12;;;;;;;6.07;2.28;;;;;;;;;;5094571;28;20029;-73
2021/10/24 14:23:37;;;;;;;3.22;1.25;;;;;;;;;;5094489;28;20020;-72
2021/10/24 14:26:03;;;;;;;4.30;1.65;;;;;;;;;;5094637;28;20095;-73
2021/10/24 14:28:28;;;;;;;3.72;1.83;;;;;;;;;;5095025;28;20368;-72
2021/10/24 14:30:54;;;;;;;6.55;1.88;;;;;;;;;;5094652;28;20027;-72
2021/10/24 14:33:19;;;;;;;7.43;1.88;;;;;;;;;;5093253;28;20494;-72
2021/10/24 14:35:44;;;;;;;10.10;3.40;;;;;;;;;;5094246;28;20020;-72